Time;durP1;ratioP1;P1;durP2;ratioP2;P2;SDS_P1;SDS_P2;PMS_P1;PMS_P2;Temp;Humidity;BMP_temperature;BMP_pressure;BME280_temperature;BME280_humidity;BME280_pressure;Samples;Min_cycle;Max_cycle;Signal;HPM_P1;HPM_P2
2022/04/29 00:02:06;;;;;;;140.23;21.37;;;;;;;;;;4955145;28;20224;-68
2022/04/29 00:04:32;;;;;;;122.17;18.67;;;;;;;;;;4953184;28;20221;-68
2022/04/29 00:06:59;;;;;;;132.37;20.93;;;;;;;;;;4961447;28;20214;-68
2022/04/29 00:09:25;;;;;;;74.23;12.07;;;;;;;;;;4963055;28;20245;-68
2022/04/29 00:11:51;;;;;;;87.53;13.70;;;;;;;;;;4957804;28;20222;-68
2022/04/29 00:14:17;;;;;;;72.47;11.47;;;;;;;;;;4960581;28;20210;-68
2022/04/29 00:16:43;;;;;;;148.47;22.60;;;;;;;;;;4956118;28;20245;-68
2022/04/29 00:19:09;;;;;;;169.50;25.43;;;;;;;;;;4954290;28;20297;-67
2022/04/29 00:21:35;;;;;;;76.93;12.63;;;;;;;;;;4957900;28;20696;-68
2022/04/29 00:24:01;;;;;;;149.77;23.07;;;;;;;;;;4958543;28;20205;-68
2022/04/29 00:26:27;;;;;;;93.63;14.53;;;;;;;;;;4956908;28;20226;-68
2022/04/29 00:28:53;;;;;;;96.87;14.70;;;;;;;;;;4952933;28;20220;-68
2022/04/29 00:31:19;;;;;;;106.43;16.07;;;;;;;;;;4956248;28;20317;-68
2022/04/29 00:33:45;;;;;;;54.57;8.77;;;;;;;;;;4957598;28;20300;-68
2022/04/29 00:36:11;;;;;;;108.10;17.23;;;;;;;;;;4954067;28;20246;-68
2022/04/29 00:38:37;;;;;;;77.20;12.03;;;;;;;;;;4959726;28;20219;-68
2022/04/29 00:41:03;;;;;;;112.13;16.63;;;;;;;;;;4939872;28;20225;-68
2022/04/29 00:43:29;;;;;;;132.70;19.47;;;;;;;;;;4938936;28;20577;-68
2022/04/29 00:45:54;;;;;;;99.83;14.93;;;;;;;;;;4952171;28;20222;-68
2022/04/29 00:48:20;;;;;;;94.13;14.50;;;;;;;;;;4959484;28;20179;-68
2022/04/29 00:50:46;;;;;;;122.07;18.13;;;;;;;;;;4950855;28;20316;-68
2022/04/29 00:53:13;;;;;;;121.73;18.23;;;;;;;;;;4951922;28;20571;-68
2022/04/29 00:55:40;;;;;;;95.60;14.47;;;;;;;;;;4954488;28;20215;-68
2022/04/29 00:58:11;;;;;;;129.47;19.00;;;;;;;;;;4935701;28;20213;-68
2022/04/29 01:00:38;;;;;;;73.63;11.53;;;;;;;;;;4956083;28;20249;-68
2022/04/29 01:03:05;;;;;;;104.97;16.63;;;;;;;;;;4953997;28;20186;-68
2022/04/29 01:05:34;;;;;;;56.93;9.10;;;;;;;;;;4956407;28;20285;-68
2022/04/29 01:08:00;;;;;;;122.67;18.47;;;;;;;;;;4954490;28;20242;-68
2022/04/29 01:10:26;;;;;;;102.97;15.47;;;;;;;;;;4953299;28;20738;-68
2022/04/29 01:12:59;;;;;;;66.07;10.33;;;;;;;;;;4938726;28;20221;-68
2022/04/29 01:15:25;;;;;;;94.50;14.53;;;;;;;;;;4944243;28;20211;-67
2022/04/29 01:17:54;;;;;;;67.10;10.23;;;;;;;;;;4962122;28;20670;-69
2022/04/29 01:20:21;;;;;;;94.63;14.10;;;;;;;;;;4953063;28;20452;-68
2022/04/29 01:22:47;;;;;;;84.87;12.67;;;;;;;;;;4954910;28;20222;-68
2022/04/29 01:25:13;;;;;;;86.17;12.90;;;;;;;;;;4953765;28;20810;-68
2022/04/29 01:27:39;;;;;;;98.70;14.93;;;;;;;;;;4956856;28;20194;-68
2022/04/29 01:30:07;;;;;;;96.03;14.80;;;;;;;;;;4952147;28;20584;-68
2022/04/29 01:32:33;;;;;;;89.57;13.47;;;;;;;;;;4955293;28;20218;-68
2022/04/29 01:35:00;;;;;;;135.00;21.10;;;;;;;;;;4936026;28;20306;-68
2022/04/29 01:37:25;;;;;;;95.83;15.23;;;;;;;;;;4950372;28;20490;-68
2022/04/29 01:39:51;;;;;;;78.23;11.80;;;;;;;;;;4958981;28;20731;-68
2022/04/29 01:42:17;;;;;;;111.13;17.20;;;;;;;;;;4950211;28;20573;-68
2022/04/29 01:44:45;;;;;;;90.87;13.57;;;;;;;;;;4953871;28;20307;-68
2022/04/29 01:47:11;;;;;;;128.97;19.43;;;;;;;;;;4939909;28;20222;-68
2022/04/29 01:49:37;;;;;;;61.27;9.97;;;;;;;;;;4934755;28;20685;-68
2022/04/29 01:52:03;;;;;;;153.83;23.30;;;;;;;;;;4950669;28;20217;-68
2022/04/29 01:54:29;;;;;;;55.60;9.30;;;;;;;;;;4956443;28;20197;-68
2022/04/29 01:56:55;;;;;;;65.43;10.33;;;;;;;;;;4935778;28;20229;-68
2022/04/29 01:59:21;;;;;;;125.77;18.30;;;;;;;;;;4950022;28;20221;-68
2022/04/29 02:01:47;;;;;;;92.17;13.97;;;;;;;;;;4954872;28;20302;-68
2022/04/29 02:04:14;;;;;;;83.03;12.47;;;;;;;;;;4955584;28;20728;-68
2022/04/29 02:06:40;;;;;;;86.50;13.60;;;;;;;;;;4949724;28;20198;-67
2022/04/29 02:09:06;;;;;;;152.20;22.33;;;;;;;;;;4949944;28;20194;-68
2022/04/29 02:11:32;;;;;;;85.70;13.20;;;;;;;;;;4955473;28;20233;-68
2022/04/29 02:13:58;;;;;;;105.57;15.90;;;;;;;;;;4935608;28;20581;-68
2022/04/29 02:16:24;;;;;;;91.70;13.70;;;;;;;;;;4952372;28;20217;-68
2022/04/29 02:18:50;;;;;;;83.00;12.60;;;;;;;;;;4956057;28;20246;-68
2022/04/29 02:21:16;;;;;;;86.50;13.00;;;;;;;;;;4951797;28;20911;-68
2022/04/29 02:23:42;;;;;;;79.33;12.13;;;;;;;;;;4956864;28;20226;-68
2022/04/29 02:26:08;;;;;;;235.57;35.50;;;;;;;;;;4951051;28;20201;-68
2022/04/29 02:28:34;;;;;;;72.87;12.37;;;;;;;;;;4951137;28;20312;-68
2022/04/29 02:31:00;;;;;;;122.80;20.07;;;;;;;;;;4950903;28;20708;-68
2022/04/29 02:33:27;;;;;;;98.03;15.97;;;;;;;;;;4954658;28;20191;-68
2022/04/29 02:35:53;;;;;;;71.57;11.63;;;;;;;;;;4952708;28;20185;-68
2022/04/29 02:38:19;;;;;;;75.60;12.40;;;;;;;;;;4956929;28;20218;-68
2022/04/29 02:40:45;;;;;;;68.90;11.13;;;;;;;;;;4954679;28;20217;-68
2022/04/29 02:43:11;;;;;;;122.83;19.07;;;;;;;;;;4952901;28;20791;-68
2022/04/29 02:45:38;;;;;;;106.47;16.97;;;;;;;;;;4939574;28;20190;-68
2022/04/29 02:48:04;;;;;;;115.67;18.17;;;;;;;;;;4955710;28;20611;-68
2022/04/29 02:50:30;;;;;;;132.67;20.23;;;;;;;;;;4935630;28;20222;-68
2022/04/29 02:52:56;;;;;;;92.63;14.60;;;;;;;;;;4952781;28;20214;-68
2022/04/29 02:55:23;;;;;;;101.37;15.83;;;;;;;;;;4953315;28;20218;-68
2022/04/29 02:57:48;;;;;;;73.17;11.47;;;;;;;;;;4958505;28;20210;-68
2022/04/29 03:00:14;;;;;;;59.57;9.63;;;;;;;;;;4956340;28;20191;-68
2022/04/29 03:02:40;;;;;;;82.77;12.83;;;;;;;;;;4955158;28;20217;-68
2022/04/29 03:05:07;;;;;;;104.77;16.00;;;;;;;;;;4951910;28;20711;-68
2022/04/29 03:07:33;;;;;;;58.93;9.53;;;;;;;;;;4956023;28;20226;-68
2022/04/29 03:09:59;;;;;;;111.67;16.97;;;;;;;;;;4958803;28;20218;-68
2022/04/29 03:12:25;;;;;;;96.60;14.97;;;;;;;;;;4953729;28;20218;-68
2022/04/29 03:14:51;;;;;;;108.03;16.73;;;;;;;;;;4950944;28;20202;-68
2022/04/29 03:20:02;;;;;;;115.83;18.67;;;;;;;;;;4959443;28;20272;-68
2022/04/29 03:22:28;;;;;;;62.70;10.93;;;;;;;;;;4956405;28;20231;-68
2022/04/29 03:24:54;;;;;;;65.33;11.00;;;;;;;;;;4941711;28;20827;-68
2022/04/29 03:27:20;;;;;;;62.67;10.73;;;;;;;;;;4956885;28;20249;-67
2022/04/29 03:29:47;;;;;;;131.87;21.17;;;;;;;;;;4958610;28;20226;-68
2022/04/29 03:32:13;;;;;;;86.47;14.13;;;;;;;;;;4955553;28;21063;-68
2022/04/29 03:34:39;;;;;;;92.73;15.10;;;;;;;;;;4960479;28;20220;-68
2022/04/29 03:37:05;;;;;;;123.00;19.87;;;;;;;;;;4954348;28;20205;-68
2022/04/29 03:39:31;;;;;;;101.37;17.17;;;;;;;;;;4960278;28;20194;-68
2022/04/29 03:41:57;;;;;;;177.03;29.30;;;;;;;;;;4958532;28;20206;-69
2022/04/29 03:44:23;;;;;;;105.80;16.73;;;;;;;;;;4957157;28;20217;-68
2022/04/29 03:46:49;;;;;;;87.77;14.27;;;;;;;;;;4957595;28;20313;-68
2022/04/29 03:52:00;;;;;;;173.30;27.80;;;;;;;;;;4953587;28;20233;-68
2022/04/29 03:54:26;;;;;;;69.07;12.00;;;;;;;;;;4960234;28;20565;-68
2022/04/29 03:56:52;;;;;;;43.43;7.37;;;;;;;;;;4957363;28;20194;-68
2022/04/29 03:59:19;;;;;;;77.87;12.87;;;;;;;;;;4955482;28;20651;-68
2022/04/29 04:01:45;;;;;;;86.40;13.87;;;;;;;;;;4958960;28;20222;-68
2022/04/29 04:04:11;;;;;;;132.93;21.27;;;;;;;;;;4952433;28;20221;-67
2022/04/29 04:06:49;;;;;;;84.63;13.97;;;;;;;;;;4955341;28;20187;-68
2022/04/29 04:09:15;;;;;;;83.73;13.63;;;;;;;;;;4960063;28;20183;-68
2022/04/29 04:11:41;;;;;;;94.20;15.23;;;;;;;;;;4947125;28;20238;-68
2022/04/29 04:14:08;;;;;;;95.63;16.10;;;;;;;;;;4959738;28;20218;-68
2022/04/29 04:16:34;;;;;;;68.63;11.53;;;;;;;;;;4956969;28;20219;-69
2022/04/29 04:19:00;;;;;;;123.90;20.13;;;;;;;;;;4961762;28;20218;-68
2022/04/29 04:21:26;;;;;;;84.30;14.37;;;;;;;;;;4953248;28;20202;-68
2022/04/29 04:23:53;;;;;;;94.80;15.67;;;;;;;;;;4959551;28;20205;-68
2022/04/29 04:26:19;;;;;;;142.97;23.57;;;;;;;;;;4935609;28;20306;-68
2022/04/29 04:28:45;;;;;;;73.17;12.33;;;;;;;;;;4953516;28;20218;-68
2022/04/29 04:31:11;;;;;;;134.10;21.43;;;;;;;;;;4956664;28;20284;-68
2022/04/29 04:33:37;;;;;;;85.33;14.00;;;;;;;;;;4956630;28;20560;-68
2022/04/29 04:36:04;;;;;;;175.77;28.57;;;;;;;;;;4953060;28;20642;-69
2022/04/29 04:38:30;;;;;;;93.47;15.77;;;;;;;;;;4951373;28;20337;-67
2022/04/29 04:40:56;;;;;;;102.47;17.07;;;;;;;;;;4955598;28;20213;-67
2022/04/29 04:43:23;;;;;;;90.60;15.07;;;;;;;;;;4955259;28;20221;-68
2022/04/29 04:45:49;;;;;;;111.47;18.17;;;;;;;;;;4957051;28;20328;-68
2022/04/29 04:48:15;;;;;;;83.17;14.40;;;;;;;;;;4958478;28;20240;-68
2022/04/29 04:50:41;;;;;;;113.93;18.93;;;;;;;;;;4957485;28;20711;-68
2022/04/29 04:53:06;;;;;;;142.33;23.23;;;;;;;;;;4950714;28;21508;-68
2022/04/29 04:55:32;;;;;;;91.00;15.40;;;;;;;;;;4958005;28;20206;-68
2022/04/29 04:57:58;;;;;;;155.80;26.63;;;;;;;;;;4953089;28;20734;-68
2022/04/29 05:00:24;;;;;;;100.13;16.87;;;;;;;;;;4958238;28;20195;-68
2022/04/29 05:02:50;;;;;;;55.40;9.80;;;;;;;;;;4962121;28;20206;-69
2022/04/29 05:05:17;;;;;;;107.43;18.23;;;;;;;;;;4961275;28;20314;-68
2022/04/29 05:07:43;;;;;;;64.40;11.70;;;;;;;;;;4954708;28;20261;-68
2022/04/29 05:10:10;;;;;;;106.83;18.50;;;;;;;;;;4961061;28;20257;-69
2022/04/29 05:12:43;;;;;;;83.83;15.00;;;;;;;;;;4963132;28;20211;-69
2022/04/29 05:15:09;;;;;;;121.80;20.37;;;;;;;;;;4959359;28;20921;-69
2022/04/29 05:17:35;;;;;;;60.63;11.20;;;;;;;;;;4956629;28;20382;-68
2022/04/29 05:20:02;;;;;;;128.20;23.07;;;;;;;;;;4954449;28;20304;-67
2022/04/29 05:22:29;;;;;;;100.60;17.67;;;;;;;;;;4933750;28;20226;-66
2022/04/29 05:24:55;;;;;;;110.80;19.23;;;;;;;;;;4952498;28;20214;-66
2022/04/29 05:27:21;;;;;;;150.00;25.33;;;;;;;;;;4946235;28;20243;-66
2022/04/29 05:29:47;;;;;;;70.00;12.73;;;;;;;;;;4950697;28;20266;-67
2022/04/29 05:32:14;;;;;;;168.43;28.50;;;;;;;;;;4952338;28;20321;-66
2022/04/29 05:34:40;;;;;;;98.83;17.47;;;;;;;;;;4953420;28;20214;-66
2022/04/29 05:37:06;;;;;;;157.10;27.70;;;;;;;;;;4944909;28;20221;-66
2022/04/29 05:42:22;;;;;;;107.73;19.13;;;;;;;;;;4946297;28;20273;-65
2022/04/29 05:44:48;;;;;;;75.00;13.90;;;;;;;;;;4957534;28;20653;-66
2022/04/29 05:47:14;;;;;;;191.40;32.03;;;;;;;;;;4948525;28;20221;-66
2022/04/29 05:49:40;;;;;;;81.07;14.53;;;;;;;;;;4961654;28;20223;-66
2022/04/29 05:52:07;;;;;;;168.33;30.23;;;;;;;;;;4931967;28;20221;-66
2022/04/29 05:54:33;;;;;;;114.87;20.63;;;;;;;;;;4952550;28;20193;-66
2022/04/29 05:56:59;;;;;;;101.93;17.93;;;;;;;;;;4959629;28;20194;-66
2022/04/29 05:59:25;;;;;;;101.47;18.33;;;;;;;;;;4953286;28;20221;-66
2022/04/29 06:01:51;;;;;;;146.73;26.80;;;;;;;;;;4947865;28;20229;-67
2022/04/29 06:04:17;;;;;;;132.27;23.37;;;;;;;;;;4934077;28;20214;-67
2022/04/29 06:06:43;;;;;;;108.80;19.97;;;;;;;;;;4948082;28;20226;-66
2022/04/29 06:09:09;;;;;;;112.13;21.03;;;;;;;;;;4936038;28;20202;-66
2022/04/29 06:11:35;;;;;;;151.70;27.00;;;;;;;;;;4943116;28;20317;-65
2022/04/29 06:14:01;;;;;;;126.63;23.43;;;;;;;;;;4951055;28;23981;-64
2022/04/29 06:16:27;;;;;;;160.23;29.20;;;;;;;;;;4915660;28;21013;-67
2022/04/29 06:18:53;;;;;;;111.43;20.67;;;;;;;;;;4948408;28;20218;-66
2022/04/29 06:21:19;;;;;;;129.57;23.57;;;;;;;;;;4954910;28;20840;-68
2022/04/29 06:23:46;;;;;;;86.27;16.13;;;;;;;;;;4958360;28;20241;-71
2022/04/29 06:26:13;;;;;;;142.00;27.17;;;;;;;;;;4957653;28;20225;-66
2022/04/29 06:28:39;;;;;;;89.20;16.73;;;;;;;;;;4960313;28;20214;-68
2022/04/29 06:31:05;;;;;;;171.13;34.75;;;;;;;;;;4931941;28;20238;-67
2022/04/29 06:33:31;;;;;;;130.27;24.57;;;;;;;;;;4948775;28;20194;-67
2022/04/29 06:35:57;;;;;;;165.50;31.33;;;;;;;;;;4956357;28;20256;-65
2022/04/29 06:38:23;;;;;;;64.10;12.43;;;;;;;;;;4963772;28;20313;-66
2022/04/29 06:40:50;;;;;;;156.00;28.90;;;;;;;;;;4951085;28;20611;-67
2022/04/29 06:43:16;;;;;;;78.57;14.90;;;;;;;;;;4952395;28;20287;-70
2022/04/29 06:45:42;;;;;;;77.30;14.47;;;;;;;;;;4960786;28;20246;-70
2022/04/29 06:48:08;;;;;;;115.53;21.23;;;;;;;;;;4961587;28;20206;-61
2022/04/29 06:50:34;;;;;;;61.63;11.90;;;;;;;;;;4955624;28;20720;-62
2022/04/29 06:53:00;;;;;;;112.57;20.97;;;;;;;;;;4956014;28;20223;-60
2022/04/29 06:55:27;;;;;;;106.53;19.83;;;;;;;;;;4954708;28;20216;-65
2022/04/29 06:57:52;;;;;;;115.17;21.63;;;;;;;;;;4966841;28;20308;-65
2022/04/29 07:00:19;;;;;;;140.10;26.48;;;;;;;;;;4960205;28;20298;-66
2022/04/29 07:02:45;;;;;;;99.50;18.97;;;;;;;;;;4955626;28;20282;-64
2022/04/29 07:05:11;;;;;;;138.90;26.35;;;;;;;;;;4957289;28;20226;-64
2022/04/29 07:07:37;;;;;;;119.97;23.20;;;;;;;;;;4958927;28;20229;-63
2022/04/29 07:10:04;;;;;;;163.57;32.07;;;;;;;;;;4963580;28;20300;-64
2022/04/29 07:12:33;;;;;;;57.20;12.15;;;;;;;;;;4959393;28;20211;-63
2022/04/29 07:14:59;;;;;;;96.40;19.88;;;;;;;;;;4959031;28;20265;-64
2022/04/29 07:17:25;;;;;;;63.38;13.00;;;;;;;;;;4959036;28;20222;-64
2022/04/29 07:19:53;;;;;;;99.18;19.80;;;;;;;;;;4957006;28;20226;-64
2022/04/29 07:22:19;;;;;;;97.88;19.08;;;;;;;;;;4953981;28;20218;-66
2022/04/29 07:24:45;;;;;;;87.32;17.85;;;;;;;;;;4960761;28;20220;-65
2022/04/29 07:27:14;;;;;;;110.53;22.00;;;;;;;;;;4961122;28;20193;-66
2022/04/29 07:29:40;;;;;;;72.97;14.48;;;;;;;;;;4946846;28;20206;-66
2022/04/29 07:32:07;;;;;;;175.45;35.58;;;;;;;;;;4959780;28;20230;-65
2022/04/29 07:42:47;;;;;;;90.20;20.27;;;;;;;;;;4952867;28;20739;-64
2022/04/29 07:45:13;;;;;;;142.35;31.33;;;;;;;;;;4961358;28;20210;-66
2022/04/29 07:47:39;;;;;;;71.93;16.42;;;;;;;;;;4956228;28;20257;-67
2022/04/29 07:50:08;;;;;;;172.30;41.03;;;;;;;;;;4935803;28;20321;-66
2022/04/29 07:52:35;;;;;;;169.48;36.70;;;;;;;;;;4948103;28;20241;-66
2022/04/29 07:55:01;;;;;;;143.98;31.65;;;;;;;;;;4956631;28;20218;-67
2022/04/29 07:57:27;;;;;;;158.57;34.03;;;;;;;;;;4956414;28;20304;-68
2022/04/29 07:59:53;;;;;;;205.98;41.05;;;;;;;;;;4960369;28;20260;-65
2022/04/29 08:02:19;;;;;;;118.28;26.02;;;;;;;;;;4960426;28;20240;-67
2022/04/29 08:04:45;;;;;;;97.00;19.73;;;;;;;;;;4941843;28;20334;-68
2022/04/29 08:07:11;;;;;;;111.90;22.63;;;;;;;;;;4960405;28;21098;-67
2022/04/29 08:09:37;;;;;;;103.53;21.30;;;;;;;;;;4963549;28;20244;-66
2022/04/29 08:12:04;;;;;;;168.45;32.83;;;;;;;;;;4963134;28;20236;-68
2022/04/29 08:14:31;;;;;;;112.10;22.25;;;;;;;;;;4938174;28;20850;-67
2022/04/29 08:16:57;;;;;;;103.93;21.65;;;;;;;;;;4958288;28;20214;-66
2022/04/29 08:19:23;;;;;;;120.22;22.58;;;;;;;;;;4957327;28;20623;-65
2022/04/29 08:21:50;;;;;;;150.98;28.85;;;;;;;;;;4950789;28;20219;-65
2022/04/29 08:24:15;;;;;;;153.27;30.08;;;;;;;;;;4953411;28;20202;-66
2022/04/29 08:26:42;;;;;;;104.28;21.10;;;;;;;;;;4952221;28;20218;-67
2022/04/29 08:29:10;;;;;;;120.60;23.48;;;;;;;;;;4956302;28;20589;-65
2022/04/29 08:31:36;;;;;;;152.65;30.27;;;;;;;;;;4930795;28;20231;-66
2022/04/29 08:34:04;;;;;;;124.07;23.33;;;;;;;;;;4948018;28;20222;-65
2022/04/29 08:36:30;;;;;;;93.97;18.88;;;;;;;;;;4955290;28;20199;-65
2022/04/29 08:38:56;;;;;;;162.98;32.38;;;;;;;;;;4952963;28;20245;-65
2022/04/29 08:41:22;;;;;;;117.28;23.17;;;;;;;;;;4956593;28;20655;-66
2022/04/29 08:43:49;;;;;;;174.88;34.67;;;;;;;;;;4939366;28;20207;-65
2022/04/29 08:46:16;;;;;;;134.60;26.38;;;;;;;;;;4952349;28;20222;-66
2022/04/29 08:48:43;;;;;;;112.70;22.48;;;;;;;;;;4948680;28;20831;-65
2022/04/29 08:51:09;;;;;;;157.65;33.03;;;;;;;;;;4954106;28;20297;-66
2022/04/29 08:53:36;;;;;;;136.98;27.35;;;;;;;;;;4938444;28;20305;-65
2022/04/29 08:58:47;;;;;;;73.90;16.02;;;;;;;;;;4955002;28;20220;-66
2022/04/29 09:01:16;;;;;;;83.93;17.00;;;;;;;;;;4954778;28;20218;-67
2022/04/29 09:03:43;;;;;;;82.25;16.88;;;;;;;;;;4956629;28;20226;-67
2022/04/29 09:06:09;;;;;;;186.30;38.17;;;;;;;;;;4960741;28;20182;-67
2022/04/29 09:08:39;;;;;;;59.58;12.25;;;;;;;;;;4953145;28;20541;-67
2022/04/29 09:11:05;;;;;;;171.88;35.92;;;;;;;;;;4952706;28;20223;-67
2022/04/29 09:13:32;;;;;;;106.40;20.98;;;;;;;;;;4932627;28;20250;-67
2022/04/29 09:15:59;;;;;;;75.55;15.77;;;;;;;;;;4940847;28;20288;-66
2022/04/29 09:18:34;;;;;;;163.43;32.90;;;;;;;;;;4950296;28;20178;-67
2022/04/29 09:21:03;;;;;;;177.82;37.40;;;;;;;;;;4946793;28;20207;-67
2022/04/29 09:23:29;;;;;;;220.60;43.58;;;;;;;;;;4947826;28;20226;-67
2022/04/29 09:25:57;;;;;;;96.57;19.75;;;;;;;;;;4960498;28;20269;-67
2022/04/29 09:28:23;;;;;;;117.43;24.42;;;;;;;;;;4965705;28;20214;-67
2022/04/29 09:30:54;;;;;;;63.55;13.73;;;;;;;;;;4966260;28;20230;-66
2022/04/29 09:33:21;;;;;;;90.88;19.17;;;;;;;;;;4940387;28;20592;-67
2022/04/29 09:35:49;;;;;;;70.40;15.20;;;;;;;;;;4962230;28;20226;-67
2022/04/29 09:41:00;;;;;;;99.50;22.92;;;;;;;;;;4963269;28;20221;-67
2022/04/29 09:43:33;;;;;;;76.95;15.98;;;;;;;;;;4963591;28;20678;-67
2022/04/29 09:46:09;;;;;;;99.53;21.63;;;;;;;;;;4962348;28;20210;-67
2022/04/29 09:48:53;;;;;;;97.90;19.58;;;;;;;;;;4963176;28;20178;-67
2022/04/29 09:51:48;;;;;;;66.07;13.55;;;;;;;;;;4960853;28;20222;-67
2022/04/29 09:54:17;;;;;;;88.85;17.50;;;;;;;;;;4956876;28;20219;-67
2022/04/29 09:56:47;;;;;;;60.47;12.02;;;;;;;;;;4968267;28;20206;-67
2022/04/29 09:59:14;;;;;;;83.97;17.70;;;;;;;;;;4963924;28;20214;-67
2022/04/29 10:01:41;;;;;;;196.88;44.17;;;;;;;;;;4957199;28;20691;-66
2022/04/29 10:04:08;;;;;;;94.47;19.77;;;;;;;;;;4959895;28;20238;-67
2022/04/29 10:06:34;;;;;;;69.55;14.98;;;;;;;;;;4959963;28;20556;-67
2022/04/29 10:09:00;;;;;;;94.90;20.10;;;;;;;;;;4963017;28;20182;-67
2022/04/29 10:11:27;;;;;;;49.65;10.48;;;;;;;;;;4963563;28;20218;-67
2022/04/29 10:13:53;;;;;;;45.70;9.73;;;;;;;;;;4963338;28;20297;-66
2022/04/29 10:16:20;;;;;;;82.70;17.30;;;;;;;;;;4961534;28;20280;-67
2022/04/29 10:21:48;;;;;;;73.63;16.25;;;;;;;;;;4961640;28;20220;-67
2022/04/29 10:24:15;;;;;;;84.32;18.45;;;;;;;;;;4960666;28;20568;-67
2022/04/29 10:26:40;;;;;;;68.40;15.77;;;;;;;;;;4959891;28;20309;-67
2022/04/29 10:29:07;;;;;;;196.93;41.03;;;;;;;;;;4944128;28;20830;-66
2022/04/29 10:31:33;;;;;;;107.10;22.50;;;;;;;;;;4950190;28;20236;-69
2022/04/29 10:34:18;;;;;;;158.63;37.88;;;;;;;;;;4945256;28;20211;-72
2022/04/29 10:36:47;;;;;;;119.97;27.90;;;;;;;;;;4948867;28;20301;-65
2022/04/29 10:39:21;;;;;;;116.45;25.40;;;;;;;;;;4954091;28;20193;-64
2022/04/29 10:42:03;;;;;;;148.02;33.22;;;;;;;;;;4935409;28;20742;-65
2022/04/29 10:44:31;;;;;;;100.95;23.75;;;;;;;;;;4943973;28;20304;-64
2022/04/29 10:47:03;;;;;;;173.98;39.60;;;;;;;;;;4943356;28;20213;-64
2022/04/29 10:49:30;;;;;;;102.18;24.48;;;;;;;;;;4951990;28;20218;-63
2022/04/29 10:51:58;;;;;;;202.15;49.00;;;;;;;;;;4948219;28;22287;-63
2022/04/29 10:54:34;;;;;;;101.72;23.20;;;;;;;;;;4959068;28;20233;-63
2022/04/29 10:57:02;;;;;;;140.15;34.67;;;;;;;;;;4949844;28;20190;-63
2022/04/29 10:59:28;;;;;;;71.93;17.33;;;;;;;;;;4953987;28;20599;-63
2022/04/29 11:02:14;;;;;;;145.52;33.38;;;;;;;;;;4944812;28;20232;-64
2022/04/29 11:04:44;;;;;;;199.68;44.90;;;;;;;;;;4947502;28;20210;-64
2022/04/29 11:07:30;;;;;;;146.32;31.75;;;;;;;;;;4946785;28;20207;-66
2022/04/29 11:09:55;;;;;;;150.70;34.53;;;;;;;;;;4950078;28;20728;-64
2022/04/29 11:12:35;;;;;;;164.75;39.88;;;;;;;;;;4952815;28;20216;-65
2022/04/29 11:15:10;;;;;;;151.57;36.60;;;;;;;;;;4947478;28;20265;-66
2022/04/29 11:17:37;;;;;;;179.32;41.30;;;;;;;;;;4946925;28;20228;-65
2022/04/29 11:20:35;;;;;;;135.55;33.28;;;;;;;;;;4951543;28;20218;-65
2022/04/29 11:25:48;;;;;;;118.18;28.63;;;;;;;;;;4950544;28;20222;-66
2022/04/29 11:28:15;;;;;;;120.95;29.33;;;;;;;;;;4945420;28;20217;-66
2022/04/29 11:30:41;;;;;;;92.80;22.70;;;;;;;;;;4951797;28;20206;-65
2022/04/29 11:33:06;;;;;;;179.10;40.63;;;;;;;;;;4950398;28;20568;-65
2022/04/29 11:35:32;;;;;;;138.75;32.53;;;;;;;;;;4947136;28;20225;-65
2022/04/29 11:37:59;;;;;;;89.93;22.65;;;;;;;;;;4950445;28;20210;-65
2022/04/29 11:40:26;;;;;;;143.77;35.80;;;;;;;;;;4954380;28;20221;-63
2022/04/29 11:42:52;;;;;;;222.75;60.72;;;;;;;;;;4948678;28;20284;-64
2022/04/29 11:45:22;;;;;;;319.45;84.13;;;;;;;;;;4940649;28;20784;-64
2022/04/29 11:47:48;;;;;;;127.75;29.92;;;;;;;;;;4948187;28;20222;-63
2022/04/29 11:50:14;;;;;;;154.65;37.53;;;;;;;;;;4951179;28;20277;-64
2022/04/29 11:52:40;;;;;;;97.82;24.45;;;;;;;;;;4953611;28;20217;-61
2022/04/29 11:55:07;;;;;;;219.82;56.03;;;;;;;;;;4950991;28;20301;-63
2022/04/29 11:57:34;;;;;;;143.90;37.30;;;;;;;;;;4957265;28;20905;-63
2022/04/29 12:00:00;;;;;;;251.10;67.45;;;;;;;;;;4940260;28;20588;-63
2022/04/29 12:02:27;;;;;;;100.22;26.27;;;;;;;;;;4947694;28;20753;-63
2022/04/29 12:04:57;;;;;;;163.82;43.78;;;;;;;;;;4950300;28;20278;-63
2022/04/29 12:07:24;;;;;;;226.52;60.03;;;;;;;;;;4951387;28;20268;-62
2022/04/29 12:09:50;;;;;;;190.82;49.35;;;;;;;;;;4944254;28;20222;-63
2022/04/29 12:12:28;;;;;;;181.57;46.78;;;;;;;;;;4945749;28;20224;-65
2022/04/29 12:14:55;;;;;;;152.38;39.47;;;;;;;;;;4947959;28;20221;-64
2022/04/29 12:17:31;;;;;;;92.72;25.30;;;;;;;;;;4955368;28;20209;-65
2022/04/29 12:19:57;;;;;;;97.18;26.35;;;;;;;;;;4960821;28;20214;-65
2022/04/29 12:22:31;;;;;;;86.15;23.17;;;;;;;;;;4960163;28;20222;-66
2022/04/29 12:24:57;;;;;;;182.65;53.42;;;;;;;;;;4937183;28;20213;-64
2022/04/29 12:27:33;;;;;;;129.60;43.67;;;;;;;;;;4948284;28;20228;-65
2022/04/29 12:35:31;;;;;;;153.32;53.63;;;;;;;;;;4954482;28;20217;-64
2022/04/29 12:37:57;;;;;;;178.98;62.65;;;;;;;;;;4945916;28;20218;-65
2022/04/29 12:40:27;;;;;;;145.00;52.33;;;;;;;;;;4948966;28;20222;-65
2022/04/29 12:42:53;;;;;;;113.47;34.47;;;;;;;;;;4957324;28;20219;-65
2022/04/29 12:45:24;;;;;;;121.75;36.97;;;;;;;;;;4954455;28;21039;-66
2022/04/29 12:47:54;;;;;;;115.18;35.90;;;;;;;;;;4955975;28;20214;-65
2022/04/29 12:50:47;;;;;;;104.25;31.13;;;;;;;;;;4955843;28;20311;-64
2022/04/29 12:53:17;;;;;;;139.95;38.40;;;;;;;;;;4948626;28;20558;-66
2022/04/29 12:55:44;;;;;;;120.07;34.58;;;;;;;;;;4943753;28;20222;-65
2022/04/29 12:58:09;;;;;;;155.40;45.08;;;;;;;;;;4946231;28;20210;-64
2022/04/29 13:00:36;;;;;;;154.15;47.80;;;;;;;;;;4951209;28;20197;-61
2022/04/29 13:03:07;;;;;;;259.42;72.82;;;;;;;;;;4946617;28;20735;-63
2022/04/29 13:05:34;;;;;;;140.10;35.42;;;;;;;;;;4951707;28;20280;-62
2022/04/29 13:08:01;;;;;;;128.32;34.72;;;;;;;;;;4953489;28;20214;-63
2022/04/29 13:10:27;;;;;;;67.18;17.98;;;;;;;;;;4950093;28;20256;-64
2022/04/29 13:12:57;;;;;;;69.53;17.75;;;;;;;;;;4956040;28;20669;-64
2022/04/29 13:15:23;;;;;;;304.27;88.68;;;;;;;;;;4951871;28;20278;-64
2022/04/29 13:17:50;;;;;;;345.73;89.55;;;;;;;;;;4932888;28;20178;-63
2022/04/29 13:20:16;;;;;;;81.90;20.70;;;;;;;;;;4959024;28;20222;-63
2022/04/29 13:22:42;;;;;;;81.97;21.02;;;;;;;;;;4954889;28;20259;-64
2022/04/29 13:25:09;;;;;;;119.15;29.30;;;;;;;;;;4963818;28;20218;-63
2022/04/29 13:27:35;;;;;;;69.20;17.77;;;;;;;;;;4957946;28;20551;-63
2022/04/29 13:30:07;;;;;;;245.68;63.67;;;;;;;;;;4949432;28;20221;-64
2022/04/29 13:32:34;;;;;;;68.40;17.63;;;;;;;;;;4953490;28;20657;-64
2022/04/29 13:35:00;;;;;;;148.10;35.28;;;;;;;;;;4958424;28;20222;-64
2022/04/29 13:37:26;;;;;;;121.75;28.95;;;;;;;;;;4959646;28;20218;-63
2022/04/29 13:39:52;;;;;;;86.03;21.52;;;;;;;;;;4959835;28;20230;-63
2022/04/29 13:42:19;;;;;;;105.70;25.00;;;;;;;;;;4959444;28;20216;-64
2022/04/29 13:44:44;;;;;;;119.78;28.45;;;;;;;;;;4954842;28;20207;-63
2022/04/29 13:47:10;;;;;;;149.63;35.78;;;;;;;;;;4954620;28;20831;-67
2022/04/29 13:49:36;;;;;;;109.15;27.35;;;;;;;;;;4953193;28;20222;-67
2022/04/29 13:53:07;;;;;;;215.63;52.95;;;;;;;;;;4933605;28;20317;-65
2022/04/29 13:54:48;;;;;;;133.13;33.15;;;;;;;;;;4957130;28;20222;-65
2022/04/29 13:57:14;;;;;;;76.07;21.02;;;;;;;;;;4953711;28;20189;-67
2022/04/29 13:59:40;;;;;;;107.68;29.63;;;;;;;;;;4954218;28;20249;-67
2022/04/29 14:02:06;;;;;;;178.35;50.63;;;;;;;;;;4946238;28;20271;-66
2022/04/29 14:04:32;;;;;;;207.23;58.90;;;;;;;;;;4947188;28;20280;-66
2022/04/29 14:06:58;;;;;;;105.60;34.40;;;;;;;;;;4944203;28;20241;-66
2022/04/29 14:09:24;;;;;;;128.10;35.97;;;;;;;;;;4935744;28;20187;-66
2022/04/29 14:11:50;;;;;;;77.55;29.05;;;;;;;;;;4962825;28;20741;-66
2022/04/29 14:14:16;;;;;;;111.13;39.42;;;;;;;;;;4959656;28;22197;-66
2022/04/29 14:16:42;;;;;;;66.88;26.40;;;;;;;;;;4964211;28;20587;-66
2022/04/29 14:19:08;;;;;;;243.32;217.88;;;;;;;;;;4962504;28;20219;-66
2022/04/29 14:21:34;;;;;;;256.98;234.85;;;;;;;;;;4954780;28;20206;-67
2022/04/29 14:24:00;;;;;;;298.13;267.20;;;;;;;;;;4959398;28;20206;-66
2022/04/29 14:26:26;;;;;;;286.23;258.05;;;;;;;;;;4969070;28;20225;-66
2022/04/29 14:28:52;;;;;;;273.40;247.93;;;;;;;;;;4962476;28;20210;-66
2022/04/29 14:31:18;;;;;;;263.33;239.50;;;;;;;;;;4961584;28;20217;-66
2022/04/29 14:33:44;;;;;;;293.65;262.30;;;;;;;;;;4959381;28;20226;-66
2022/04/29 14:36:11;;;;;;;272.27;243.32;;;;;;;;;;4960550;28;20672;-66
2022/04/29 14:38:37;;;;;;;280.77;251.02;;;;;;;;;;4959408;28;20214;-66
2022/04/29 14:41:03;;;;;;;286.02;256.98;;;;;;;;;;4965131;28;20288;-66
2022/04/29 14:43:29;;;;;;;281.38;253.65;;;;;;;;;;4964842;28;20268;-66